sensor_id;sensor_type;location;lat;lon;timestamp;P1;durP1;ratioP1;P2;durP2;ratioP2
18176;SDS011;9213;50.858;3.964;2023-03-17T00:00:06;3.23;;;2.67;;
18176;SDS011;9213;50.858;3.964;2023-03-17T00:02:36;3.73;;;2.80;;
18176;SDS011;9213;50.858;3.964;2023-03-17T00:05:09;4.63;;;2.90;;
18176;SDS011;9213;50.858;3.964;2023-03-17T00:07:40;9.17;;;2.60;;
18176;SDS011;9213;50.858;3.964;2023-03-17T00:10:09;3.40;;;2.50;;
18176;SDS011;9213;50.858;3.964;2023-03-17T00:12:41;3.07;;;2.77;;
18176;SDS011;9213;50.858;3.964;2023-03-17T00:15:11;2.97;;;2.60;;
18176;SDS011;9213;50.858;3.964;2023-03-17T00:17:39;4.70;;;2.90;;
18176;SDS011;9213;50.858;3.964;2023-03-17T00:20:09;3.40;;;2.80;;
18176;SDS011;9213;50.858;3.964;2023-03-17T00:22:39;3.47;;;2.70;;
18176;SDS011;9213;50.858;3.964;2023-03-17T00:25:11;2.83;;;2.50;;
18176;SDS011;9213;50.858;3.964;2023-03-17T00:27:52;3.03;;;2.73;;
18176;SDS011;9213;50.858;3.964;2023-03-17T00:30:21;3.60;;;2.77;;
18176;SDS011;9213;50.858;3.964;2023-03-17T00:32:48;3.73;;;2.70;;
18176;SDS011;9213;50.858;3.964;2023-03-17T00:35:18;3.70;;;2.97;;
18176;SDS011;9213;50.858;3.964;2023-03-17T00:37:48;4.53;;;2.70;;
18176;SDS011;9213;50.858;3.964;2023-03-17T00:40:17;4.00;;;2.67;;
18176;SDS011;9213;50.858;3.964;2023-03-17T00:42:46;4.23;;;2.87;;
18176;SDS011;9213;50.858;3.964;2023-03-17T00:45:14;2.97;;;2.77;;
18176;SDS011;9213;50.858;3.964;2023-03-17T00:47:43;4.03;;;2.67;;
18176;SDS011;9213;50.858;3.964;2023-03-17T00:50:11;4.00;;;3.17;;
18176;SDS011;9213;50.858;3.964;2023-03-17T00:52:40;6.30;;;2.90;;
18176;SDS011;9213;50.858;3.964;2023-03-17T00:55:07;4.27;;;3.30;;
18176;SDS011;9213;50.858;3.964;2023-03-17T00:57:35;3.80;;;2.87;;
18176;SDS011;9213;50.858;3.964;2023-03-17T01:00:03;2.97;;;2.60;;
18176;SDS011;9213;50.858;3.964;2023-03-17T01:02:31;3.83;;;3.27;;
18176;SDS011;9213;50.858;3.964;2023-03-17T01:05:00;3.50;;;3.20;;
18176;SDS011;9213;50.858;3.964;2023-03-17T01:07:28;3.87;;;2.70;;
18176;SDS011;9213;50.858;3.964;2023-03-17T01:09:55;4.13;;;2.63;;
18176;SDS011;9213;50.858;3.964;2023-03-17T01:12:22;3.03;;;2.73;;
18176;SDS011;9213;50.858;3.964;2023-03-17T01:14:50;5.60;;;3.07;;
18176;SDS011;9213;50.858;3.964;2023-03-17T01:17:18;3.70;;;2.80;;
18176;SDS011;9213;50.858;3.964;2023-03-17T01:19:45;4.83;;;3.67;;
18176;SDS011;9213;50.858;3.964;2023-03-17T01:22:14;4.83;;;3.10;;
18176;SDS011;9213;50.858;3.964;2023-03-17T01:24:41;5.67;;;3.20;;
18176;SDS011;9213;50.858;3.964;2023-03-17T01:27:08;3.73;;;3.20;;
18176;SDS011;9213;50.858;3.964;2023-03-17T01:29:35;4.13;;;2.90;;
18176;SDS011;9213;50.858;3.964;2023-03-17T01:32:02;4.23;;;3.37;;
18176;SDS011;9213;50.858;3.964;2023-03-17T01:34:30;5.37;;;3.60;;
18176;SDS011;9213;50.858;3.964;2023-03-17T01:36:57;3.47;;;2.93;;
18176;SDS011;9213;50.858;3.964;2023-03-17T01:39:27;3.57;;;2.73;;
18176;SDS011;9213;50.858;3.964;2023-03-17T01:41:55;4.63;;;3.00;;
18176;SDS011;9213;50.858;3.964;2023-03-17T01:44:25;3.47;;;2.80;;
18176;SDS011;9213;50.858;3.964;2023-03-17T01:46:52;5.70;;;3.27;;
18176;SDS011;9213;50.858;3.964;2023-03-17T01:49:22;4.47;;;3.03;;
18176;SDS011;9213;50.858;3.964;2023-03-17T01:51:55;4.83;;;2.73;;
18176;SDS011;9213;50.858;3.964;2023-03-17T01:54:29;4.13;;;2.40;;
18176;SDS011;9213;50.858;3.964;2023-03-17T01:57:05;2.47;;;2.27;;
18176;SDS011;9213;50.858;3.964;2023-03-17T01:59:37;3.73;;;2.67;;
18176;SDS011;9213;50.858;3.964;2023-03-17T02:02:08;3.10;;;2.40;;
18176;SDS011;9213;50.858;3.964;2023-03-17T02:04:37;3.37;;;2.47;;
18176;SDS011;9213;50.858;3.964;2023-03-17T02:07:05;3.07;;;2.47;;
18176;SDS011;9213;50.858;3.964;2023-03-17T02:09:33;2.93;;;2.60;;
18176;SDS011;9213;50.858;3.964;2023-03-17T02:12:01;2.57;;;2.37;;
18176;SDS011;9213;50.858;3.964;2023-03-17T02:14:29;3.80;;;2.70;;
18176;SDS011;9213;50.858;3.964;2023-03-17T02:16:56;2.93;;;2.60;;
18176;SDS011;9213;50.858;3.964;2023-03-17T02:19:23;3.30;;;2.57;;
18176;SDS011;9213;50.858;3.964;2023-03-17T02:21:53;2.93;;;2.63;;
18176;SDS011;9213;50.858;3.964;2023-03-17T02:24:24;3.87;;;2.90;;
18176;SDS011;9213;50.858;3.964;2023-03-17T02:26:56;4.30;;;2.47;;
18176;SDS011;9213;50.858;3.964;2023-03-17T02:29:30;2.80;;;2.33;;
18176;SDS011;9213;50.858;3.964;2023-03-17T02:32:00;3.53;;;2.57;;
18176;SDS011;9213;50.858;3.964;2023-03-17T02:34:27;3.73;;;2.60;;
18176;SDS011;9213;50.858;3.964;2023-03-17T02:36:55;4.40;;;2.50;;
18176;SDS011;9213;50.858;3.964;2023-03-17T02:39:22;4.47;;;2.63;;
18176;SDS011;9213;50.858;3.964;2023-03-17T02:41:49;3.57;;;2.77;;
18176;SDS011;9213;50.858;3.964;2023-03-17T02:44:17;2.60;;;2.40;;
18176;SDS011;9213;50.858;3.964;2023-03-17T02:46:44;3.90;;;3.03;;
18176;SDS011;9213;50.858;3.964;2023-03-17T02:49:11;3.37;;;2.90;;
18176;SDS011;9213;50.858;3.964;2023-03-17T02:51:38;5.07;;;2.80;;
18176;SDS011;9213;50.858;3.964;2023-03-17T02:54:07;2.90;;;2.50;;
18176;SDS011;9213;50.858;3.964;2023-03-17T02:56:33;3.53;;;2.80;;
18176;SDS011;9213;50.858;3.964;2023-03-17T02:59:00;5.33;;;3.30;;
18176;SDS011;9213;50.858;3.964;2023-03-17T03:01:27;6.53;;;3.17;;
18176;SDS011;9213;50.858;3.964;2023-03-17T03:03:55;2.87;;;2.60;;
18176;SDS011;9213;50.858;3.964;2023-03-17T03:06:22;3.13;;;2.73;;
18176;SDS011;9213;50.858;3.964;2023-03-17T03:08:49;4.33;;;2.77;;
18176;SDS011;9213;50.858;3.964;2023-03-17T03:11:17;3.73;;;2.90;;
18176;SDS011;9213;50.858;3.964;2023-03-17T03:13:44;4.77;;;2.77;;
18176;SDS011;9213;50.858;3.964;2023-03-17T03:16:11;3.67;;;2.83;;
18176;SDS011;9213;50.858;3.964;2023-03-17T03:18:38;4.10;;;2.83;;
18176;SDS011;9213;50.858;3.964;2023-03-17T03:21:05;3.03;;;2.43;;
18176;SDS011;9213;50.858;3.964;2023-03-17T03:23:33;3.33;;;2.60;;
18176;SDS011;9213;50.858;3.964;2023-03-17T03:26:01;3.93;;;2.90;;
18176;SDS011;9213;50.858;3.964;2023-03-17T03:28:29;4.90;;;3.57;;
18176;SDS011;9213;50.858;3.964;2023-03-17T03:30:56;4.07;;;2.60;;
18176;SDS011;9213;50.858;3.964;2023-03-17T03:33:23;3.63;;;2.43;;
18176;SDS011;9213;50.858;3.964;2023-03-17T03:35:50;4.07;;;2.50;;
18176;SDS011;9213;50.858;3.964;2023-03-17T03:38:17;5.00;;;2.70;;
18176;SDS011;9213;50.858;3.964;2023-03-17T03:40:44;3.33;;;2.40;;
18176;SDS011;9213;50.858;3.964;2023-03-17T03:43:11;2.80;;;2.30;;
18176;SDS011;9213;50.858;3.964;2023-03-17T03:45:39;6.63;;;2.50;;
18176;SDS011;9213;50.858;3.964;2023-03-17T03:48:07;3.07;;;2.50;;
18176;SDS011;9213;50.858;3.964;2023-03-17T03:50:34;3.47;;;2.50;;
18176;SDS011;9213;50.858;3.964;2023-03-17T03:53:01;2.67;;;2.20;;
18176;SDS011;9213;50.858;3.964;2023-03-17T03:55:28;5.50;;;2.47;;
18176;SDS011;9213;50.858;3.964;2023-03-17T03:57:55;3.00;;;2.70;;
18176;SDS011;9213;50.858;3.964;2023-03-17T04:00:22;2.30;;;2.03;;
18176;SDS011;9213;50.858;3.964;2023-03-17T04:02:50;2.97;;;2.17;;
18176;SDS011;9213;50.858;3.964;2023-03-17T04:05:17;3.03;;;2.27;;
18176;SDS011;9213;50.858;3.964;2023-03-17T04:07:44;2.63;;;2.10;;
18176;SDS011;9213;50.858;3.964;2023-03-17T04:10:12;2.57;;;2.37;;
18176;SDS011;9213;50.858;3.964;2023-03-17T04:12:40;3.37;;;2.50;;
18176;SDS011;9213;50.858;3.964;2023-03-17T04:15:08;3.03;;;2.30;;
18176;SDS011;9213;50.858;3.964;2023-03-17T04:17:39;3.80;;;2.70;;
18176;SDS011;9213;50.858;3.964;2023-03-17T04:20:08;3.43;;;2.27;;
18176;SDS011;9213;50.858;3.964;2023-03-17T04:22:37;3.27;;;2.30;;
18176;SDS011;9213;50.858;3.964;2023-03-17T04:25:04;14.63;;;3.60;;
18176;SDS011;9213;50.858;3.964;2023-03-17T04:27:31;4.17;;;2.53;;
18176;SDS011;9213;50.858;3.964;2023-03-17T04:29:58;2.60;;;2.13;;
18176;SDS011;9213;50.858;3.964;2023-03-17T04:32:26;4.40;;;2.10;;
18176;SDS011;9213;50.858;3.964;2023-03-17T04:34:53;4.60;;;2.53;;
18176;SDS011;9213;50.858;3.964;2023-03-17T04:37:22;2.83;;;2.37;;
18176;SDS011;9213;50.858;3.964;2023-03-17T04:39:49;5.83;;;2.53;;
18176;SDS011;9213;50.858;3.964;2023-03-17T04:42:17;2.50;;;2.30;;
18176;SDS011;9213;50.858;3.964;2023-03-17T04:44:44;5.23;;;3.03;;
18176;SDS011;9213;50.858;3.964;2023-03-17T04:47:11;2.57;;;2.37;;
18176;SDS011;9213;50.858;3.964;2023-03-17T04:49:38;3.83;;;2.60;;
18176;SDS011;9213;50.858;3.964;2023-03-17T04:52:05;3.00;;;2.67;;
18176;SDS011;9213;50.858;3.964;2023-03-17T04:54:34;3.43;;;2.40;;
18176;SDS011;9213;50.858;3.964;2023-03-17T04:57:01;5.17;;;2.50;;
18176;SDS011;9213;50.858;3.964;2023-03-17T04:59:28;2.70;;;2.37;;
18176;SDS011;9213;50.858;3.964;2023-03-17T05:01:55;2.87;;;2.50;;
18176;SDS011;9213;50.858;3.964;2023-03-17T05:04:21;4.13;;;2.70;;
18176;SDS011;9213;50.858;3.964;2023-03-17T05:06:48;5.40;;;2.60;;
18176;SDS011;9213;50.858;3.964;2023-03-17T05:09:16;4.13;;;2.50;;
18176;SDS011;9213;50.858;3.964;2023-03-17T05:11:44;4.10;;;2.80;;
18176;SDS011;9213;50.858;3.964;2023-03-17T05:14:11;5.30;;;2.80;;
18176;SDS011;9213;50.858;3.964;2023-03-17T05:16:38;4.17;;;3.03;;
18176;SDS011;9213;50.858;3.964;2023-03-17T05:19:05;5.63;;;2.83;;
18176;SDS011;9213;50.858;3.964;2023-03-17T05:21:32;3.70;;;2.93;;
18176;SDS011;9213;50.858;3.964;2023-03-17T05:23:59;6.10;;;2.80;;
18176;SDS011;9213;50.858;3.964;2023-03-17T05:26:26;4.47;;;2.70;;
18176;SDS011;9213;50.858;3.964;2023-03-17T05:28:55;4.73;;;2.77;;
18176;SDS011;9213;50.858;3.964;2023-03-17T05:31:22;6.67;;;3.20;;
18176;SDS011;9213;50.858;3.964;2023-03-17T05:33:49;3.77;;;2.73;;
18176;SDS011;9213;50.858;3.964;2023-03-17T05:36:16;5.97;;;3.37;;
18176;SDS011;9213;50.858;3.964;2023-03-17T05:38:43;3.83;;;3.17;;
18176;SDS011;9213;50.858;3.964;2023-03-17T05:41:10;4.40;;;2.90;;
18176;SDS011;9213;50.858;3.964;2023-03-17T05:43:37;4.67;;;3.23;;
18176;SDS011;9213;50.858;3.964;2023-03-17T05:46:06;3.90;;;2.60;;
18176;SDS011;9213;50.858;3.964;2023-03-17T05:48:34;6.17;;;2.97;;
18176;SDS011;9213;50.858;3.964;2023-03-17T05:51:02;4.13;;;2.77;;
18176;SDS011;9213;50.858;3.964;2023-03-17T05:53:29;7.40;;;3.03;;
18176;SDS011;9213;50.858;3.964;2023-03-17T05:55:56;3.57;;;2.70;;
18176;SDS011;9213;50.858;3.964;2023-03-17T05:58:23;5.73;;;2.90;;
18176;SDS011;9213;50.858;3.964;2023-03-17T06:00:50;4.53;;;3.10;;
18176;SDS011;9213;50.858;3.964;2023-03-17T06:03:18;3.20;;;2.90;;
18176;SDS011;9213;50.858;3.964;2023-03-17T06:05:46;6.57;;;2.97;;
18176;SDS011;9213;50.858;3.964;2023-03-17T06:08:13;3.70;;;2.90;;
18176;SDS011;9213;50.858;3.964;2023-03-17T06:10:40;5.50;;;2.70;;
18176;SDS011;9213;50.858;3.964;2023-03-17T06:13:07;4.00;;;2.77;;
18176;SDS011;9213;50.858;3.964;2023-03-17T06:15:35;3.50;;;3.20;;
18176;SDS011;9213;50.858;3.964;2023-03-17T06:18:02;3.87;;;3.30;;
18176;SDS011;9213;50.858;3.964;2023-03-17T06:20:31;4.37;;;3.30;;
18176;SDS011;9213;50.858;3.964;2023-03-17T06:22:58;5.07;;;2.87;;
18176;SDS011;9213;50.858;3.964;2023-03-17T06:25:26;3.40;;;3.10;;
18176;SDS011;9213;50.858;3.964;2023-03-17T06:27:53;5.33;;;3.40;;
18176;SDS011;9213;50.858;3.964;2023-03-17T06:30:20;6.57;;;3.10;;
18176;SDS011;9213;50.858;3.964;2023-03-17T06:32:47;4.90;;;3.40;;
18176;SDS011;9213;50.858;3.964;2023-03-17T06:35:14;4.10;;;3.20;;
18176;SDS011;9213;50.858;3.964;2023-03-17T06:37:43;5.00;;;2.90;;
18176;SDS011;9213;50.858;3.964;2023-03-17T06:40:11;4.73;;;2.93;;
18176;SDS011;9213;50.858;3.964;2023-03-17T06:42:39;3.33;;;3.03;;
18176;SDS011;9213;50.858;3.964;2023-03-17T06:45:06;4.40;;;3.30;;
18176;SDS011;9213;50.858;3.964;2023-03-17T06:47:34;6.23;;;2.90;;
18176;SDS011;9213;50.858;3.964;2023-03-17T06:50:02;4.03;;;2.77;;
18176;SDS011;9213;50.858;3.964;2023-03-17T06:52:30;5.63;;;3.03;;
18176;SDS011;9213;50.858;3.964;2023-03-17T06:54:58;2.97;;;2.70;;
18176;SDS011;9213;50.858;3.964;2023-03-17T06:57:25;5.33;;;3.03;;
18176;SDS011;9213;50.858;3.964;2023-03-17T06:59:53;4.87;;;2.87;;
18176;SDS011;9213;50.858;3.964;2023-03-17T07:02:20;3.13;;;2.60;;
18176;SDS011;9213;50.858;3.964;2023-03-17T07:04:47;4.03;;;3.00;;
18176;SDS011;9213;50.858;3.964;2023-03-17T07:07:14;5.33;;;3.00;;
18176;SDS011;9213;50.858;3.964;2023-03-17T07:09:41;3.43;;;3.07;;
18176;SDS011;9213;50.858;3.964;2023-03-17T07:12:09;3.87;;;3.10;;
18176;SDS011;9213;50.858;3.964;2023-03-17T07:14:36;5.53;;;3.30;;
18176;SDS011;9213;50.858;3.964;2023-03-17T07:17:04;4.37;;;2.97;;
18176;SDS011;9213;50.858;3.964;2023-03-17T07:19:31;4.43;;;2.77;;
18176;SDS011;9213;50.858;3.964;2023-03-17T07:21:59;8.37;;;3.37;;
18176;SDS011;9213;50.858;3.964;2023-03-17T07:24:26;7.17;;;3.60;;
18176;SDS011;9213;50.858;3.964;2023-03-17T07:26:52;5.70;;;3.50;;
18176;SDS011;9213;50.858;3.964;2023-03-17T07:29:21;4.03;;;3.40;;
18176;SDS011;9213;50.858;3.964;2023-03-17T07:31:48;7.90;;;3.57;;
18176;SDS011;9213;50.858;3.964;2023-03-17T07:34:15;4.67;;;3.07;;
18176;SDS011;9213;50.858;3.964;2023-03-17T07:36:42;4.73;;;3.10;;
18176;SDS011;9213;50.858;3.964;2023-03-17T07:39:09;5.63;;;3.23;;
18176;SDS011;9213;50.858;3.964;2023-03-17T07:41:37;6.27;;;3.47;;
18176;SDS011;9213;50.858;3.964;2023-03-17T07:44:04;4.47;;;3.13;;
18176;SDS011;9213;50.858;3.964;2023-03-17T07:46:32;5.80;;;3.20;;
18176;SDS011;9213;50.858;3.964;2023-03-17T07:48:59;4.37;;;3.10;;
18176;SDS011;9213;50.858;3.964;2023-03-17T07:51:26;5.23;;;3.17;;
18176;SDS011;9213;50.858;3.964;2023-03-17T07:53:53;4.83;;;2.90;;
18176;SDS011;9213;50.858;3.964;2023-03-17T07:56:27;6.70;;;3.30;;
18176;SDS011;9213;50.858;3.964;2023-03-17T07:58:55;5.83;;;2.90;;
18176;SDS011;9213;50.858;3.964;2023-03-17T08:01:22;4.43;;;3.40;;
18176;SDS011;9213;50.858;3.964;2023-03-17T08:03:51;6.93;;;3.40;;
18176;SDS011;9213;50.858;3.964;2023-03-17T08:06:18;6.80;;;3.20;;
18176;SDS011;9213;50.858;3.964;2023-03-17T08:08:49;5.47;;;3.40;;
18176;SDS011;9213;50.858;3.964;2023-03-17T08:11:16;4.70;;;3.30;;
18176;SDS011;9213;50.858;3.964;2023-03-17T08:13:44;4.90;;;3.30;;
18176;SDS011;9213;50.858;3.964;2023-03-17T08:16:11;4.83;;;3.07;;
18176;SDS011;9213;50.858;3.964;2023-03-17T08:18:38;4.03;;;3.30;;
18176;SDS011;9213;50.858;3.964;2023-03-17T08:21:07;4.70;;;3.40;;
18176;SDS011;9213;50.858;3.964;2023-03-17T08:23:34;4.80;;;3.40;;
18176;SDS011;9213;50.858;3.964;2023-03-17T08:26:02;4.73;;;3.30;;
18176;SDS011;9213;50.858;3.964;2023-03-17T08:28:29;5.90;;;3.33;;
18176;SDS011;9213;50.858;3.964;2023-03-17T08:31:04;5.27;;;3.47;;
18176;SDS011;9213;50.858;3.964;2023-03-17T08:33:33;7.03;;;3.30;;
18176;SDS011;9213;50.858;3.964;2023-03-17T08:36:02;7.10;;;3.50;;
18176;SDS011;9213;50.858;3.964;2023-03-17T08:41:00;5.63;;;3.60;;
18176;SDS011;9213;50.858;3.964;2023-03-17T08:43:27;4.47;;;3.30;;
18176;SDS011;9213;50.858;3.964;2023-03-17T08:45:58;5.67;;;3.80;;
18176;SDS011;9213;50.858;3.964;2023-03-17T08:48:27;9.83;;;3.80;;
18176;SDS011;9213;50.858;3.964;2023-03-17T08:50:54;10.17;;;4.00;;
18176;SDS011;9213;50.858;3.964;2023-03-17T08:53:28;5.47;;;3.70;;
18176;SDS011;9213;50.858;3.964;2023-03-17T08:55:58;5.53;;;3.50;;
18176;SDS011;9213;50.858;3.964;2023-03-17T08:58:25;7.43;;;4.00;;
18176;SDS011;9213;50.858;3.964;2023-03-17T09:00:53;6.83;;;3.73;;
18176;SDS011;9213;50.858;3.964;2023-03-17T09:03:24;6.57;;;3.60;;
18176;SDS011;9213;50.858;3.964;2023-03-17T09:05:51;5.47;;;3.47;;
18176;SDS011;9213;50.858;3.964;2023-03-17T09:08:18;4.80;;;3.43;;
18176;SDS011;9213;50.858;3.964;2023-03-17T09:10:46;9.07;;;3.93;;
18176;SDS011;9213;50.858;3.964;2023-03-17T09:13:15;5.73;;;3.40;;
18176;SDS011;9213;50.858;3.964;2023-03-17T09:15:43;4.97;;;3.53;;
18176;SDS011;9213;50.858;3.964;2023-03-17T09:18:10;6.90;;;3.30;;
18176;SDS011;9213;50.858;3.964;2023-03-17T09:20:38;6.23;;;3.20;;
18176;SDS011;9213;50.858;3.964;2023-03-17T09:23:06;8.80;;;3.20;;
18176;SDS011;9213;50.858;3.964;2023-03-17T09:25:33;4.90;;;3.70;;
18176;SDS011;9213;50.858;3.964;2023-03-17T09:28:01;5.77;;;3.37;;
18176;SDS011;9213;50.858;3.964;2023-03-17T09:30:32;5.20;;;3.57;;
18176;SDS011;9213;50.858;3.964;2023-03-17T09:32:59;6.83;;;3.70;;
18176;SDS011;9213;50.858;3.964;2023-03-17T09:35:27;5.43;;;3.30;;
18176;SDS011;9213;50.858;3.964;2023-03-17T09:37:55;7.20;;;3.50;;
18176;SDS011;9213;50.858;3.964;2023-03-17T09:40:26;8.13;;;3.43;;
18176;SDS011;9213;50.858;3.964;2023-03-17T09:42:59;7.03;;;3.80;;
18176;SDS011;9213;50.858;3.964;2023-03-17T09:45:34;6.97;;;3.50;;
18176;SDS011;9213;50.858;3.964;2023-03-17T09:50:59;5.53;;;3.60;;
18176;SDS011;9213;50.858;3.964;2023-03-17T09:53:29;10.70;;;3.77;;
18176;SDS011;9213;50.858;3.964;2023-03-17T09:56:01;4.20;;;3.23;;
18176;SDS011;9213;50.858;3.964;2023-03-17T09:58:33;10.20;;;3.77;;
18176;SDS011;9213;50.858;3.964;2023-03-17T10:01:02;5.80;;;3.33;;
18176;SDS011;9213;50.858;3.964;2023-03-17T10:03:30;4.47;;;3.30;;
18176;SDS011;9213;50.858;3.964;2023-03-17T10:05:59;8.77;;;3.60;;
18176;SDS011;9213;50.858;3.964;2023-03-17T10:08:40;5.90;;;3.77;;
18176;SDS011;9213;50.858;3.964;2023-03-17T10:11:15;9.17;;;3.83;;
18176;SDS011;9213;50.858;3.964;2023-03-17T10:13:48;4.77;;;3.20;;
18176;SDS011;9213;50.858;3.964;2023-03-17T10:16:24;5.90;;;3.67;;
18176;SDS011;9213;50.858;3.964;2023-03-17T10:18:57;4.97;;;3.67;;
18176;SDS011;9213;50.858;3.964;2023-03-17T10:21:28;8.13;;;4.10;;
18176;SDS011;9213;50.858;3.964;2023-03-17T10:23:59;6.03;;;4.10;;
18176;SDS011;9213;50.858;3.964;2023-03-17T10:26:29;8.07;;;4.03;;
18176;SDS011;9213;50.858;3.964;2023-03-17T10:28:59;6.47;;;3.73;;
18176;SDS011;9213;50.858;3.964;2023-03-17T10:31:30;6.30;;;3.83;;
18176;SDS011;9213;50.858;3.964;2023-03-17T10:34:03;8.43;;;3.70;;
18176;SDS011;9213;50.858;3.964;2023-03-17T10:36:38;9.83;;;4.07;;
18176;SDS011;9213;50.858;3.964;2023-03-17T10:39:09;5.13;;;4.00;;
18176;SDS011;9213;50.858;3.964;2023-03-17T10:41:39;5.63;;;3.73;;
18176;SDS011;9213;50.858;3.964;2023-03-17T10:44:20;5.90;;;3.80;;
18176;SDS011;9213;50.858;3.964;2023-03-17T10:46:54;6.30;;;3.93;;
18176;SDS011;9213;50.858;3.964;2023-03-17T10:49:22;5.57;;;3.77;;
18176;SDS011;9213;50.858;3.964;2023-03-17T10:51:51;5.10;;;3.60;;
18176;SDS011;9213;50.858;3.964;2023-03-17T10:54:20;7.80;;;3.97;;
18176;SDS011;9213;50.858;3.964;2023-03-17T10:56:53;5.53;;;4.00;;
18176;SDS011;9213;50.858;3.964;2023-03-17T10:59:26;7.17;;;3.90;;
18176;SDS011;9213;50.858;3.964;2023-03-17T11:01:57;6.87;;;3.97;;
18176;SDS011;9213;50.858;3.964;2023-03-17T11:04:27;5.43;;;4.00;;
18176;SDS011;9213;50.858;3.964;2023-03-17T11:06:57;6.50;;;4.10;;
18176;SDS011;9213;50.858;3.964;2023-03-17T11:09:30;5.87;;;4.10;;
18176;SDS011;9213;50.858;3.964;2023-03-17T11:12:01;6.43;;;4.43;;
18176;SDS011;9213;50.858;3.964;2023-03-17T11:14:29;5.20;;;3.70;;
18176;SDS011;9213;50.858;3.964;2023-03-17T11:16:58;8.17;;;4.37;;
18176;SDS011;9213;50.858;3.964;2023-03-17T11:19:29;9.17;;;4.30;;
18176;SDS011;9213;50.858;3.964;2023-03-17T11:22:06;5.50;;;4.27;;
18176;SDS011;9213;50.858;3.964;2023-03-17T11:24:40;6.00;;;4.10;;
18176;SDS011;9213;50.858;3.964;2023-03-17T11:27:18;8.37;;;4.37;;
18176;SDS011;9213;50.858;3.964;2023-03-17T11:30:07;7.47;;;4.60;;
18176;SDS011;9213;50.858;3.964;2023-03-17T11:32:45;6.90;;;3.93;;
18176;SDS011;9213;50.858;3.964;2023-03-17T11:35:26;6.93;;;4.67;;
18176;SDS011;9213;50.858;3.964;2023-03-17T11:38:19;5.35;;;4.05;;
18176;SDS011;9213;50.858;3.964;2023-03-17T11:43:49;5.33;;;3.97;;
18176;SDS011;9213;50.858;3.964;2023-03-17T11:46:27;7.93;;;4.70;;
18176;SDS011;9213;50.858;3.964;2023-03-17T11:48:58;5.40;;;3.70;;
18176;SDS011;9213;50.858;3.964;2023-03-17T11:51:34;5.90;;;3.90;;
18176;SDS011;9213;50.858;3.964;2023-03-17T11:54:10;9.47;;;4.20;;
18176;SDS011;9213;50.858;3.964;2023-03-17T11:56:44;6.87;;;4.33;;
18176;SDS011;9213;50.858;3.964;2023-03-17T11:59:18;8.77;;;3.77;;
18176;SDS011;9213;50.858;3.964;2023-03-17T12:01:53;6.13;;;3.20;;
18176;SDS011;9213;50.858;3.964;2023-03-17T12:04:26;4.80;;;3.22;;
18176;SDS011;9213;50.858;3.964;2023-03-17T12:06:58;5.73;;;3.33;;
18176;SDS011;9213;50.858;3.964;2023-03-17T12:09:34;4.40;;;3.33;;
18176;SDS011;9213;50.858;3.964;2023-03-17T12:12:06;6.22;;;3.47;;
18176;SDS011;9213;50.858;3.964;2023-03-17T12:14:39;5.30;;;3.45;;
18176;SDS011;9213;50.858;3.964;2023-03-17T12:17:09;10.73;;;3.60;;
18176;SDS011;9213;50.858;3.964;2023-03-17T12:19:48;5.43;;;3.47;;
18176;SDS011;9213;50.858;3.964;2023-03-17T12:22:25;5.45;;;2.97;;
18176;SDS011;9213;50.858;3.964;2023-03-17T12:25:02;7.22;;;3.42;;
18176;SDS011;9213;50.858;3.964;2023-03-17T12:27:35;3.35;;;2.90;;
18176;SDS011;9213;50.858;3.964;2023-03-17T12:30:13;7.40;;;3.10;;
18176;SDS011;9213;50.858;3.964;2023-03-17T12:32:48;4.80;;;3.10;;
18176;SDS011;9213;50.858;3.964;2023-03-17T12:35:26;4.88;;;2.83;;
18176;SDS011;9213;50.858;3.964;2023-03-17T12:37:57;4.47;;;2.85;;
18176;SDS011;9213;50.858;3.964;2023-03-17T12:40:26;5.05;;;3.03;;
18176;SDS011;9213;50.858;3.964;2023-03-17T12:43:02;5.32;;;2.97;;
18176;SDS011;9213;50.858;3.964;2023-03-17T12:45:48;4.70;;;3.55;;
18176;SDS011;9213;50.858;3.964;2023-03-17T12:51:38;5.65;;;2.97;;
18176;SDS011;9213;50.858;3.964;2023-03-17T12:54:28;6.13;;;3.67;;
18176;SDS011;9213;50.858;3.964;2023-03-17T12:57:01;6.68;;;3.47;;
18176;SDS011;9213;50.858;3.964;2023-03-17T12:59:30;5.90;;;3.58;;
18176;SDS011;9213;50.858;3.964;2023-03-17T13:02:06;5.85;;;3.38;;
18176;SDS011;9213;50.858;3.964;2023-03-17T13:04:45;5.53;;;3.10;;
18176;SDS011;9213;50.858;3.964;2023-03-17T13:07:19;4.35;;;2.97;;
18176;SDS011;9213;50.858;3.964;2023-03-17T13:15:49;4.13;;;2.55;;
18176;SDS011;9213;50.858;3.964;2023-03-17T13:18:22;5.95;;;3.33;;
18176;SDS011;9213;50.858;3.964;2023-03-17T13:21:11;4.97;;;2.97;;
18176;SDS011;9213;50.858;3.964;2023-03-17T13:23:42;4.30;;;2.90;;
18176;SDS011;9213;50.858;3.964;2023-03-17T13:26:11;3.80;;;2.92;;
18176;SDS011;9213;50.858;3.964;2023-03-17T13:28:41;8.63;;;2.92;;
18176;SDS011;9213;50.858;3.964;2023-03-17T13:34:01;4.85;;;3.10;;
18176;SDS011;9213;50.858;3.964;2023-03-17T13:36:38;7.53;;;3.03;;
18176;SDS011;9213;50.858;3.964;2023-03-17T13:39:31;3.00;;;2.70;;
18176;SDS011;9213;50.858;3.964;2023-03-17T13:42:22;3.55;;;2.67;;
18176;SDS011;9213;50.858;3.964;2023-03-17T13:45:09;6.15;;;2.55;;
18176;SDS011;9213;50.858;3.964;2023-03-17T13:47:43;5.93;;;2.67;;
18176;SDS011;9213;50.858;3.964;2023-03-17T13:50:12;7.13;;;2.95;;
18176;SDS011;9213;50.858;3.964;2023-03-17T13:52:42;5.45;;;2.83;;
18176;SDS011;9213;50.858;3.964;2023-03-17T13:58:16;5.10;;;2.00;;
18176;SDS011;9213;50.858;3.964;2023-03-17T14:00:58;5.68;;;2.35;;
18176;SDS011;9213;50.858;3.964;2023-03-17T14:03:30;4.63;;;1.80;;
18176;SDS011;9213;50.858;3.964;2023-03-17T14:06:03;2.92;;;2.00;;
18176;SDS011;9213;50.858;3.964;2023-03-17T14:08:32;5.63;;;2.25;;
18176;SDS011;9213;50.858;3.964;2023-03-17T14:11:03;4.25;;;2.50;;
18176;SDS011;9213;50.858;3.964;2023-03-17T14:13:35;4.60;;;2.50;;
18176;SDS011;9213;50.858;3.964;2023-03-17T14:16:11;5.15;;;2.47;;
18176;SDS011;9213;50.858;3.964;2023-03-17T14:18:42;3.78;;;2.60;;
18176;SDS011;9213;50.858;3.964;2023-03-17T14:21:18;4.57;;;2.55;;
18176;SDS011;9213;50.858;3.964;2023-03-17T14:23:56;5.97;;;2.72;;
18176;SDS011;9213;50.858;3.964;2023-03-17T14:26:27;5.35;;;2.88;;
18176;SDS011;9213;50.858;3.964;2023-03-17T14:28:57;7.90;;;2.90;;
18176;SDS011;9213;50.858;3.964;2023-03-17T14:31:25;5.25;;;2.70;;
18176;SDS011;9213;50.858;3.964;2023-03-17T14:33:54;5.72;;;2.70;;
18176;SDS011;9213;50.858;3.964;2023-03-17T14:36:22;5.55;;;2.90;;
18176;SDS011;9213;50.858;3.964;2023-03-17T14:38:51;3.97;;;3.00;;
18176;SDS011;9213;50.858;3.964;2023-03-17T14:41:20;6.20;;;3.65;;
18176;SDS011;9213;50.858;3.964;2023-03-17T14:43:51;5.15;;;3.05;;
18176;SDS011;9213;50.858;3.964;2023-03-17T14:46:22;3.50;;;2.97;;
18176;SDS011;9213;50.858;3.964;2023-03-17T14:48:56;6.63;;;3.13;;
18176;SDS011;9213;50.858;3.964;2023-03-17T14:51:25;4.03;;;2.88;;
18176;SDS011;9213;50.858;3.964;2023-03-17T14:53:56;6.45;;;3.33;;
18176;SDS011;9213;50.858;3.964;2023-03-17T14:56:26;7.30;;;3.10;;
18176;SDS011;9213;50.858;3.964;2023-03-17T14:59:03;4.65;;;3.13;;
18176;SDS011;9213;50.858;3.964;2023-03-17T15:01:33;6.35;;;3.00;;
18176;SDS011;9213;50.858;3.964;2023-03-17T15:04:04;5.55;;;3.15;;
18176;SDS011;9213;50.858;3.964;2023-03-17T15:06:50;5.65;;;3.10;;
18176;SDS011;9213;50.858;3.964;2023-03-17T15:09:19;5.90;;;3.00;;
18176;SDS011;9213;50.858;3.964;2023-03-17T15:11:52;5.32;;;3.13;;
18176;SDS011;9213;50.858;3.964;2023-03-17T15:14:24;5.15;;;3.00;;
18176;SDS011;9213;50.858;3.964;2023-03-17T15:16:56;9.77;;;3.22;;
18176;SDS011;9213;50.858;3.964;2023-03-17T15:19:23;5.50;;;2.92;;
18176;SDS011;9213;50.858;3.964;2023-03-17T15:21:53;6.80;;;3.65;;
18176;SDS011;9213;50.858;3.964;2023-03-17T15:24:25;6.95;;;3.25;;
18176;SDS011;9213;50.858;3.964;2023-03-17T15:26:58;6.13;;;3.17;;
18176;SDS011;9213;50.858;3.964;2023-03-17T15:29:28;8.40;;;3.42;;
18176;SDS011;9213;50.858;3.964;2023-03-17T15:31:59;5.00;;;3.20;;
18176;SDS011;9213;50.858;3.964;2023-03-17T15:34:37;8.07;;;3.45;;
18176;SDS011;9213;50.858;3.964;2023-03-17T15:37:08;5.57;;;3.75;;
18176;SDS011;9213;50.858;3.964;2023-03-17T15:39:40;6.28;;;3.33;;